sensor_id;sensor_type;location;lat;lon;timestamp;temperature;humidity
44509;DHT22;30214;52.246;14.408;2023-09-19T00:00:07;17.90;99.90
44509;DHT22;30214;52.246;14.408;2023-09-19T00:02:38;17.90;99.90
44509;DHT22;30214;52.246;14.408;2023-09-19T00:05:06;17.90;99.90
44509;DHT22;30214;52.246;14.408;2023-09-19T00:07:34;17.90;99.90
44509;DHT22;30214;52.246;14.408;2023-09-19T00:10:03;17.90;99.90
44509;DHT22;30214;52.246;14.408;2023-09-19T00:12:30;17.90;99.90
44509;DHT22;30214;52.246;14.408;2023-09-19T00:14:59;17.90;99.90
44509;DHT22;30214;52.246;14.408;2023-09-19T00:17:26;17.90;99.90
44509;DHT22;30214;52.246;14.408;2023-09-19T00:19:56;17.90;99.90
44509;DHT22;30214;52.246;14.408;2023-09-19T00:22:23;17.90;99.90
44509;DHT22;30214;52.246;14.408;2023-09-19T00:24:52;17.80;99.90
44509;DHT22;30214;52.246;14.408;2023-09-19T00:27:20;17.80;99.90
44509;DHT22;30214;52.246;14.408;2023-09-19T00:29:47;17.70;99.90
44509;DHT22;30214;52.246;14.408;2023-09-19T00:32:16;17.70;99.90
44509;DHT22;30214;52.246;14.408;2023-09-19T00:34:43;17.70;99.90
44509;DHT22;30214;52.246;14.408;2023-09-19T00:37:10;17.70;99.90
44509;DHT22;30214;52.246;14.408;2023-09-19T00:39:37;17.70;99.90
44509;DHT22;30214;52.246;14.408;2023-09-19T00:42:04;17.70;99.90
44509;DHT22;30214;52.246;14.408;2023-09-19T00:44:32;17.70;99.90
44509;DHT22;30214;52.246;14.408;2023-09-19T00:47:00;17.70;99.90
44509;DHT22;30214;52.246;14.408;2023-09-19T00:49:29;17.60;99.90
44509;DHT22;30214;52.246;14.408;2023-09-19T00:51:59;17.70;99.90
44509;DHT22;30214;52.246;14.408;2023-09-19T00:54:26;17.70;99.90
44509;DHT22;30214;52.246;14.408;2023-09-19T00:56:54;17.70;99.90
44509;DHT22;30214;52.246;14.408;2023-09-19T00:59:21;17.70;99.90
44509;DHT22;30214;52.246;14.408;2023-09-19T01:01:48;17.70;99.90
44509;DHT22;30214;52.246;14.408;2023-09-19T01:04:19;17.60;99.90
44509;DHT22;30214;52.246;14.408;2023-09-19T01:06:47;17.60;99.90
44509;DHT22;30214;52.246;14.408;2023-09-19T01:09:18;17.60;99.90
44509;DHT22;30214;52.246;14.408;2023-09-19T01:11:48;17.60;99.90
44509;DHT22;30214;52.246;14.408;2023-09-19T01:14:25;17.50;99.90
44509;DHT22;30214;52.246;14.408;2023-09-19T01:17:00;17.60;99.90
44509;DHT22;30214;52.246;14.408;2023-09-19T01:19:58;17.50;99.90
44509;DHT22;30214;52.246;14.408;2023-09-19T01:22:37;17.50;99.90
44509;DHT22;30214;52.246;14.408;2023-09-19T01:25:41;17.50;99.90
44509;DHT22;30214;52.246;14.408;2023-09-19T01:28:20;17.40;99.90
44509;DHT22;30214;52.246;14.408;2023-09-19T01:30:57;17.40;99.90
44509;DHT22;30214;52.246;14.408;2023-09-19T01:33:27;17.40;99.90
44509;DHT22;30214;52.246;14.408;2023-09-19T01:35:59;17.40;99.90
44509;DHT22;30214;52.246;14.408;2023-09-19T01:38:26;17.30;99.90
44509;DHT22;30214;52.246;14.408;2023-09-19T01:41:05;17.30;99.90
44509;DHT22;30214;52.246;14.408;2023-09-19T01:43:37;17.30;99.90
44509;DHT22;30214;52.246;14.408;2023-09-19T01:46:15;17.30;99.90
44509;DHT22;30214;52.246;14.408;2023-09-19T01:48:51;17.30;99.90
44509;DHT22;30214;52.246;14.408;2023-09-19T01:51:23;17.30;99.90
44509;DHT22;30214;52.246;14.408;2023-09-19T01:54:00;17.30;99.90
44509;DHT22;30214;52.246;14.408;2023-09-19T01:56:34;17.30;99.90
44509;DHT22;30214;52.246;14.408;2023-09-19T01:59:07;17.30;99.90
44509;DHT22;30214;52.246;14.408;2023-09-19T02:01:37;17.20;99.90
44509;DHT22;30214;52.246;14.408;2023-09-19T02:04:04;17.20;99.90
44509;DHT22;30214;52.246;14.408;2023-09-19T02:06:32;17.20;99.90
44509;DHT22;30214;52.246;14.408;2023-09-19T02:08:59;17.20;99.90
44509;DHT22;30214;52.246;14.408;2023-09-19T02:11:26;17.20;99.90
44509;DHT22;30214;52.246;14.408;2023-09-19T02:13:54;17.20;99.90
44509;DHT22;30214;52.246;14.408;2023-09-19T02:16:21;17.20;99.90
44509;DHT22;30214;52.246;14.408;2023-09-19T02:18:50;17.20;99.90
44509;DHT22;30214;52.246;14.408;2023-09-19T02:21:17;17.10;99.90
44509;DHT22;30214;52.246;14.408;2023-09-19T02:23:44;17.10;99.90
44509;DHT22;30214;52.246;14.408;2023-09-19T02:26:12;17.10;99.90
44509;DHT22;30214;52.246;14.408;2023-09-19T02:28:40;17.10;99.90
44509;DHT22;30214;52.246;14.408;2023-09-19T02:31:08;17.10;99.90
44509;DHT22;30214;52.246;14.408;2023-09-19T02:33:36;17.00;99.90
44509;DHT22;30214;52.246;14.408;2023-09-19T02:36:05;17.10;99.90
44509;DHT22;30214;52.246;14.408;2023-09-19T02:38:33;17.10;99.90
44509;DHT22;30214;52.246;14.408;2023-09-19T02:41:00;17.00;99.90
44509;DHT22;30214;52.246;14.408;2023-09-19T02:43:27;17.00;99.90
44509;DHT22;30214;52.246;14.408;2023-09-19T02:45:54;17.00;99.90
44509;DHT22;30214;52.246;14.408;2023-09-19T02:48:22;17.00;99.90
44509;DHT22;30214;52.246;14.408;2023-09-19T02:50:50;17.00;99.90
44509;DHT22;30214;52.246;14.408;2023-09-19T02:53:18;17.00;99.90
44509;DHT22;30214;52.246;14.408;2023-09-19T02:55:47;17.00;99.90
44509;DHT22;30214;52.246;14.408;2023-09-19T02:58:14;17.00;99.90
44509;DHT22;30214;52.246;14.408;2023-09-19T03:00:41;17.00;99.90
44509;DHT22;30214;52.246;14.408;2023-09-19T03:03:13;17.00;99.90
44509;DHT22;30214;52.246;14.408;2023-09-19T03:05:39;17.00;99.90
44509;DHT22;30214;52.246;14.408;2023-09-19T03:08:06;16.90;99.90
44509;DHT22;30214;52.246;14.408;2023-09-19T03:10:34;16.90;99.90
44509;DHT22;30214;52.246;14.408;2023-09-19T03:13:03;16.90;99.90
44509;DHT22;30214;52.246;14.408;2023-09-19T03:15:30;16.90;99.90
44509;DHT22;30214;52.246;14.408;2023-09-19T03:17:57;16.80;99.90
44509;DHT22;30214;52.246;14.408;2023-09-19T03:20:25;16.90;99.90
44509;DHT22;30214;52.246;14.408;2023-09-19T03:22:53;16.90;99.90
44509;DHT22;30214;52.246;14.408;2023-09-19T03:25:21;16.90;99.90
44509;DHT22;30214;52.246;14.408;2023-09-19T03:27:52;16.90;99.90
44509;DHT22;30214;52.246;14.408;2023-09-19T03:30:20;16.80;99.90
44509;DHT22;30214;52.246;14.408;2023-09-19T03:32:48;16.80;99.90
44509;DHT22;30214;52.246;14.408;2023-09-19T03:35:16;16.80;99.90
44509;DHT22;30214;52.246;14.408;2023-09-19T03:37:45;16.80;99.90
44509;DHT22;30214;52.246;14.408;2023-09-19T03:40:13;16.80;99.90
44509;DHT22;30214;52.246;14.408;2023-09-19T03:42:41;16.80;99.90
44509;DHT22;30214;52.246;14.408;2023-09-19T03:45:13;16.80;99.90
44509;DHT22;30214;52.246;14.408;2023-09-19T03:47:47;16.80;99.90
44509;DHT22;30214;52.246;14.408;2023-09-19T03:50:15;16.70;99.90
44509;DHT22;30214;52.246;14.408;2023-09-19T03:52:43;16.70;99.90
44509;DHT22;30214;52.246;14.408;2023-09-19T03:55:10;16.70;99.90
44509;DHT22;30214;52.246;14.408;2023-09-19T03:57:38;16.70;99.90
44509;DHT22;30214;52.246;14.408;2023-09-19T04:00:06;16.70;99.90
44509;DHT22;30214;52.246;14.408;2023-09-19T04:02:40;16.70;99.90
44509;DHT22;30214;52.246;14.408;2023-09-19T04:05:07;16.70;99.90
44509;DHT22;30214;52.246;14.408;2023-09-19T04:07:35;16.60;99.90
44509;DHT22;30214;52.246;14.408;2023-09-19T04:10:02;16.60;99.90
44509;DHT22;30214;52.246;14.408;2023-09-19T04:12:30;16.70;99.90
44509;DHT22;30214;52.246;14.408;2023-09-19T04:14:58;16.70;99.90
44509;DHT22;30214;52.246;14.408;2023-09-19T04:17:25;16.60;99.90
44509;DHT22;30214;52.246;14.408;2023-09-19T04:19:53;16.50;99.90
44509;DHT22;30214;52.246;14.408;2023-09-19T04:22:20;16.50;99.90
44509;DHT22;30214;52.246;14.408;2023-09-19T04:24:47;16.50;99.90
44509;DHT22;30214;52.246;14.408;2023-09-19T04:27:14;16.50;99.90
44509;DHT22;30214;52.246;14.408;2023-09-19T04:29:41;16.50;99.90
44509;DHT22;30214;52.246;14.408;2023-09-19T04:32:08;16.60;99.90
44509;DHT22;30214;52.246;14.408;2023-09-19T04:34:35;16.50;99.90
44509;DHT22;30214;52.246;14.408;2023-09-19T04:37:05;16.60;99.90
44509;DHT22;30214;52.246;14.408;2023-09-19T04:39:32;16.50;99.90
44509;DHT22;30214;52.246;14.408;2023-09-19T04:41:59;16.50;99.90
44509;DHT22;30214;52.246;14.408;2023-09-19T04:44:26;16.50;99.90
44509;DHT22;30214;52.246;14.408;2023-09-19T04:46:53;16.40;99.90
44509;DHT22;30214;52.246;14.408;2023-09-19T04:49:20;16.30;99.90
44509;DHT22;30214;52.246;14.408;2023-09-19T04:51:47;16.30;99.90
44509;DHT22;30214;52.246;14.408;2023-09-19T04:54:16;16.30;99.90
44509;DHT22;30214;52.246;14.408;2023-09-19T04:56:43;16.40;99.90
44509;DHT22;30214;52.246;14.408;2023-09-19T04:59:10;16.30;99.90
44509;DHT22;30214;52.246;14.408;2023-09-19T05:01:38;16.20;99.90
44509;DHT22;30214;52.246;14.408;2023-09-19T05:04:07;16.20;99.90
44509;DHT22;30214;52.246;14.408;2023-09-19T05:06:34;16.30;99.90
44509;DHT22;30214;52.246;14.408;2023-09-19T05:09:02;16.30;99.90
44509;DHT22;30214;52.246;14.408;2023-09-19T05:11:32;16.20;99.90
44509;DHT22;30214;52.246;14.408;2023-09-19T05:13:59;16.20;99.90
44509;DHT22;30214;52.246;14.408;2023-09-19T05:16:29;16.30;99.90
44509;DHT22;30214;52.246;14.408;2023-09-19T05:18:57;16.30;99.90
44509;DHT22;30214;52.246;14.408;2023-09-19T05:21:25;16.30;99.90
44509;DHT22;30214;52.246;14.408;2023-09-19T05:23:54;16.20;99.90
44509;DHT22;30214;52.246;14.408;2023-09-19T05:26:21;16.20;99.90
44509;DHT22;30214;52.246;14.408;2023-09-19T05:28:50;16.20;99.90
44509;DHT22;30214;52.246;14.408;2023-09-19T05:31:18;16.20;99.90
44509;DHT22;30214;52.246;14.408;2023-09-19T05:33:46;16.20;99.90
44509;DHT22;30214;52.246;14.408;2023-09-19T05:36:13;16.30;99.90
44509;DHT22;30214;52.246;14.408;2023-09-19T05:38:42;16.40;99.90
44509;DHT22;30214;52.246;14.408;2023-09-19T05:41:10;16.40;99.90
44509;DHT22;30214;52.246;14.408;2023-09-19T05:43:39;16.30;99.90
44509;DHT22;30214;52.246;14.408;2023-09-19T05:46:08;16.40;99.90
44509;DHT22;30214;52.246;14.408;2023-09-19T05:48:35;16.40;99.90
44509;DHT22;30214;52.246;14.408;2023-09-19T05:51:02;16.40;99.90
44509;DHT22;30214;52.246;14.408;2023-09-19T05:53:28;16.50;99.90
44509;DHT22;30214;52.246;14.408;2023-09-19T05:55:55;16.50;99.90
44509;DHT22;30214;52.246;14.408;2023-09-19T05:58:22;16.50;99.90
44509;DHT22;30214;52.246;14.408;2023-09-19T06:00:50;16.50;99.90
44509;DHT22;30214;52.246;14.408;2023-09-19T06:03:19;16.60;99.90
44509;DHT22;30214;52.246;14.408;2023-09-19T06:05:46;16.70;99.90
44509;DHT22;30214;52.246;14.408;2023-09-19T06:08:15;16.60;99.90
44509;DHT22;30214;52.246;14.408;2023-09-19T06:10:42;16.60;99.90
44509;DHT22;30214;52.246;14.408;2023-09-19T06:13:09;16.70;99.90
44509;DHT22;30214;52.246;14.408;2023-09-19T06:15:36;16.70;99.90
44509;DHT22;30214;52.246;14.408;2023-09-19T06:18:03;16.70;99.90
44509;DHT22;30214;52.246;14.408;2023-09-19T06:20:32;16.80;99.90
44509;DHT22;30214;52.246;14.408;2023-09-19T06:22:59;16.80;99.90
44509;DHT22;30214;52.246;14.408;2023-09-19T06:25:27;16.80;99.90
44509;DHT22;30214;52.246;14.408;2023-09-19T06:27:54;16.90;99.90
44509;DHT22;30214;52.246;14.408;2023-09-19T06:30:22;16.90;99.90
44509;DHT22;30214;52.246;14.408;2023-09-19T06:32:55;17.00;99.90
44509;DHT22;30214;52.246;14.408;2023-09-19T06:35:23;17.00;99.90
44509;DHT22;30214;52.246;14.408;2023-09-19T06:37:53;17.00;99.90
44509;DHT22;30214;52.246;14.408;2023-09-19T06:40:20;17.00;99.90
44509;DHT22;30214;52.246;14.408;2023-09-19T06:42:49;17.10;99.90
44509;DHT22;30214;52.246;14.408;2023-09-19T06:45:17;17.10;99.90
44509;DHT22;30214;52.246;14.408;2023-09-19T06:47:44;17.10;99.90
44509;DHT22;30214;52.246;14.408;2023-09-19T06:50:15;17.10;99.90
44509;DHT22;30214;52.246;14.408;2023-09-19T06:52:44;17.20;99.90
44509;DHT22;30214;52.246;14.408;2023-09-19T06:55:13;17.30;99.90
44509;DHT22;30214;52.246;14.408;2023-09-19T06:57:41;17.30;99.90
44509;DHT22;30214;52.246;14.408;2023-09-19T07:00:09;17.30;99.90
44509;DHT22;30214;52.246;14.408;2023-09-19T07:02:40;17.30;99.90
44509;DHT22;30214;52.246;14.408;2023-09-19T07:05:08;17.30;99.90
44509;DHT22;30214;52.246;14.408;2023-09-19T07:07:35;17.40;99.90
44509;DHT22;30214;52.246;14.408;2023-09-19T07:10:02;17.50;99.90
44509;DHT22;30214;52.246;14.408;2023-09-19T07:12:33;17.50;99.90
44509;DHT22;30214;52.246;14.408;2023-09-19T07:15:01;17.60;99.90
44509;DHT22;30214;52.246;14.408;2023-09-19T07:17:27;17.60;99.90
44509;DHT22;30214;52.246;14.408;2023-09-19T07:19:55;17.70;99.90
44509;DHT22;30214;52.246;14.408;2023-09-19T07:22:23;17.70;99.90
44509;DHT22;30214;52.246;14.408;2023-09-19T07:24:50;17.80;99.90
44509;DHT22;30214;52.246;14.408;2023-09-19T07:27:17;18.00;99.90
44509;DHT22;30214;52.246;14.408;2023-09-19T07:29:46;18.20;99.90
44509;DHT22;30214;52.246;14.408;2023-09-19T07:32:13;18.40;99.90
44509;DHT22;30214;52.246;14.408;2023-09-19T07:34:40;18.60;99.90
44509;DHT22;30214;52.246;14.408;2023-09-19T07:37:07;18.70;99.90
44509;DHT22;30214;52.246;14.408;2023-09-19T07:39:35;18.70;99.90
44509;DHT22;30214;52.246;14.408;2023-09-19T07:42:02;18.80;99.90
44509;DHT22;30214;52.246;14.408;2023-09-19T07:44:29;18.70;99.90
44509;DHT22;30214;52.246;14.408;2023-09-19T07:46:58;18.70;99.90
44509;DHT22;30214;52.246;14.408;2023-09-19T07:49:28;18.60;99.90
44509;DHT22;30214;52.246;14.408;2023-09-19T07:51:55;18.70;99.90
44509;DHT22;30214;52.246;14.408;2023-09-19T07:54:22;18.70;99.90
44509;DHT22;30214;52.246;14.408;2023-09-19T07:56:49;18.70;99.90
44509;DHT22;30214;52.246;14.408;2023-09-19T07:59:19;18.80;99.90
44509;DHT22;30214;52.246;14.408;2023-09-19T08:01:46;18.80;99.90
44509;DHT22;30214;52.246;14.408;2023-09-19T08:04:15;18.90;99.90
44509;DHT22;30214;52.246;14.408;2023-09-19T08:06:42;18.80;99.90
44509;DHT22;30214;52.246;14.408;2023-09-19T08:09:10;18.90;99.90
44509;DHT22;30214;52.246;14.408;2023-09-19T08:11:39;18.90;99.90
44509;DHT22;30214;52.246;14.408;2023-09-19T08:14:06;18.90;99.90
44509;DHT22;30214;52.246;14.408;2023-09-19T08:16:34;19.00;99.90
44509;DHT22;30214;52.246;14.408;2023-09-19T08:19:01;19.00;99.90
44509;DHT22;30214;52.246;14.408;2023-09-19T08:21:29;19.00;99.90
44509;DHT22;30214;52.246;14.408;2023-09-19T08:23:56;19.00;99.90
44509;DHT22;30214;52.246;14.408;2023-09-19T08:26:28;19.00;99.90
44509;DHT22;30214;52.246;14.408;2023-09-19T08:28:54;19.10;99.90
44509;DHT22;30214;52.246;14.408;2023-09-19T08:31:22;19.20;99.90
44509;DHT22;30214;52.246;14.408;2023-09-19T08:33:51;19.30;99.90
44509;DHT22;30214;52.246;14.408;2023-09-19T08:36:18;19.30;99.90
44509;DHT22;30214;52.246;14.408;2023-09-19T08:38:46;19.30;99.90
44509;DHT22;30214;52.246;14.408;2023-09-19T08:41:17;19.50;99.90
44509;DHT22;30214;52.246;14.408;2023-09-19T08:43:45;19.70;99.90
44509;DHT22;30214;52.246;14.408;2023-09-19T08:46:15;19.90;99.90
44509;DHT22;30214;52.246;14.408;2023-09-19T08:48:46;20.00;99.90
44509;DHT22;30214;52.246;14.408;2023-09-19T08:51:18;20.10;99.90
44509;DHT22;30214;52.246;14.408;2023-09-19T08:53:52;20.30;99.90
44509;DHT22;30214;52.246;14.408;2023-09-19T08:56:25;20.50;99.90
44509;DHT22;30214;52.246;14.408;2023-09-19T08:58:57;20.60;99.90
44509;DHT22;30214;52.246;14.408;2023-09-19T09:01:27;20.60;99.90
44509;DHT22;30214;52.246;14.408;2023-09-19T09:03:56;20.30;99.90
44509;DHT22;30214;52.246;14.408;2023-09-19T09:06:24;20.30;99.80
44509;DHT22;30214;52.246;14.408;2023-09-19T09:08:57;20.40;99.60
44509;DHT22;30214;52.246;14.408;2023-09-19T09:11:24;20.50;98.90
44509;DHT22;30214;52.246;14.408;2023-09-19T09:13:54;20.60;99.20
44509;DHT22;30214;52.246;14.408;2023-09-19T09:16:22;20.80;98.00
44509;DHT22;30214;52.246;14.408;2023-09-19T09:18:52;21.00;97.60
44509;DHT22;30214;52.246;14.408;2023-09-19T09:21:20;21.30;97.40
44509;DHT22;30214;52.246;14.408;2023-09-19T09:23:47;21.30;96.90
44509;DHT22;30214;52.246;14.408;2023-09-19T09:26:15;21.10;96.70
44509;DHT22;30214;52.246;14.408;2023-09-19T09:28:45;20.80;96.70
44509;DHT22;30214;52.246;14.408;2023-09-19T09:31:22;20.50;97.30
44509;DHT22;30214;52.246;14.408;2023-09-19T09:33:53;20.30;97.30
44509;DHT22;30214;52.246;14.408;2023-09-19T09:36:34;20.10;97.20
44509;DHT22;30214;52.246;14.408;2023-09-19T09:39:05;19.90;97.90
44509;DHT22;30214;52.246;14.408;2023-09-19T09:41:46;20.00;98.10
44509;DHT22;30214;52.246;14.408;2023-09-19T09:44:16;20.20;97.20
44509;DHT22;30214;52.246;14.408;2023-09-19T09:46:46;20.50;95.50
44509;DHT22;30214;52.246;14.408;2023-09-19T09:49:39;20.80;93.80
44509;DHT22;30214;52.246;14.408;2023-09-19T09:52:07;20.70;92.50
44509;DHT22;30214;52.246;14.408;2023-09-19T09:54:59;20.60;93.00
44509;DHT22;30214;52.246;14.408;2023-09-19T09:57:28;20.70;94.20
44509;DHT22;30214;52.246;14.408;2023-09-19T09:59:57;20.90;94.50
44509;DHT22;30214;52.246;14.408;2023-09-19T10:02:42;21.20;93.80
44509;DHT22;30214;52.246;14.408;2023-09-19T10:05:15;21.30;93.30
44509;DHT22;30214;52.246;14.408;2023-09-19T10:07:56;21.30;92.00
44509;DHT22;30214;52.246;14.408;2023-09-19T10:10:31;21.30;91.70
44509;DHT22;30214;52.246;14.408;2023-09-19T10:13:11;21.30;92.00
44509;DHT22;30214;52.246;14.408;2023-09-19T10:15:42;21.40;91.00
44509;DHT22;30214;52.246;14.408;2023-09-19T10:18:20;21.60;90.10
44509;DHT22;30214;52.246;14.408;2023-09-19T10:20:47;21.70;89.70
44509;DHT22;30214;52.246;14.408;2023-09-19T10:23:17;21.70;87.50
44509;DHT22;30214;52.246;14.408;2023-09-19T10:25:48;21.70;86.20
44509;DHT22;30214;52.246;14.408;2023-09-19T10:28:18;21.60;87.80
44509;DHT22;30214;52.246;14.408;2023-09-19T10:30:48;21.60;81.10
44509;DHT22;30214;52.246;14.408;2023-09-19T10:33:17;21.40;76.90
44509;DHT22;30214;52.246;14.408;2023-09-19T10:35:47;21.40;79.30
44509;DHT22;30214;52.246;14.408;2023-09-19T10:38:17;21.30;78.80
44509;DHT22;30214;52.246;14.408;2023-09-19T10:40:50;21.20;76.80
44509;DHT22;30214;52.246;14.408;2023-09-19T10:43:19;21.40;76.80
44509;DHT22;30214;52.246;14.408;2023-09-19T10:45:48;21.50;75.60
44509;DHT22;30214;52.246;14.408;2023-09-19T10:48:15;21.60;75.00
44509;DHT22;30214;52.246;14.408;2023-09-19T10:50:48;21.70;74.00
44509;DHT22;30214;52.246;14.408;2023-09-19T10:53:16;21.80;78.10
44509;DHT22;30214;52.246;14.408;2023-09-19T10:55:50;21.80;74.10
44509;DHT22;30214;52.246;14.408;2023-09-19T10:58:29;21.80;75.00
44509;DHT22;30214;52.246;14.408;2023-09-19T11:00:57;21.90;75.90
44509;DHT22;30214;52.246;14.408;2023-09-19T11:03:31;22.00;75.40
44509;DHT22;30214;52.246;14.408;2023-09-19T11:06:07;22.00;72.90
44509;DHT22;30214;52.246;14.408;2023-09-19T11:08:53;22.10;71.50
44509;DHT22;30214;52.246;14.408;2023-09-19T11:11:45;22.10;73.00
44509;DHT22;30214;52.246;14.408;2023-09-19T11:14:39;22.10;72.30
44509;DHT22;30214;52.246;14.408;2023-09-19T11:17:31;22.20;73.60
44509;DHT22;30214;52.246;14.408;2023-09-19T11:20:21;22.20;70.40
44509;DHT22;30214;52.246;14.408;2023-09-19T11:23:20;22.20;72.80
44509;DHT22;30214;52.246;14.408;2023-09-19T11:25:55;22.10;72.50
44509;DHT22;30214;52.246;14.408;2023-09-19T11:28:29;21.90;73.80
44509;DHT22;30214;52.246;14.408;2023-09-19T11:30:58;21.80;73.50
44509;DHT22;30214;52.246;14.408;2023-09-19T11:33:26;21.70;75.60
44509;DHT22;30214;52.246;14.408;2023-09-19T11:36:01;21.70;76.00
44509;DHT22;30214;52.246;14.408;2023-09-19T11:41:38;21.80;76.10
44509;DHT22;30214;52.246;14.408;2023-09-19T11:44:34;21.80;76.00
44509;DHT22;30214;52.246;14.408;2023-09-19T11:47:05;21.80;75.80
44509;DHT22;30214;52.246;14.408;2023-09-19T11:49:32;21.80;76.70
44509;DHT22;30214;52.246;14.408;2023-09-19T11:52:01;21.80;79.10
44509;DHT22;30214;52.246;14.408;2023-09-19T11:54:31;21.80;76.50
44509;DHT22;30214;52.246;14.408;2023-09-19T11:56:59;21.90;79.30
44509;DHT22;30214;52.246;14.408;2023-09-19T11:59:29;22.10;78.90
44509;DHT22;30214;52.246;14.408;2023-09-19T12:01:57;22.10;79.00
44509;DHT22;30214;52.246;14.408;2023-09-19T12:04:35;22.10;78.20
44509;DHT22;30214;52.246;14.408;2023-09-19T12:07:05;22.10;77.90
44509;DHT22;30214;52.246;14.408;2023-09-19T12:09:39;22.00;79.30
44509;DHT22;30214;52.246;14.408;2023-09-19T12:12:10;22.00;78.90
44509;DHT22;30214;52.246;14.408;2023-09-19T12:14:42;22.00;79.70
44509;DHT22;30214;52.246;14.408;2023-09-19T12:17:14;21.90;78.40
44509;DHT22;30214;52.246;14.408;2023-09-19T12:19:49;21.70;76.60
44509;DHT22;30214;52.246;14.408;2023-09-19T12:22:17;21.50;78.60
44509;DHT22;30214;52.246;14.408;2023-09-19T12:24:46;21.50;80.40
44509;DHT22;30214;52.246;14.408;2023-09-19T12:27:14;21.60;81.10
44509;DHT22;30214;52.246;14.408;2023-09-19T12:29:44;21.70;77.30
44509;DHT22;30214;52.246;14.408;2023-09-19T12:32:11;21.60;76.60
44509;DHT22;30214;52.246;14.408;2023-09-19T12:34:42;21.60;76.50
44509;DHT22;30214;52.246;14.408;2023-09-19T12:37:11;21.40;76.60
44509;DHT22;30214;52.246;14.408;2023-09-19T12:39:43;21.30;77.50
44509;DHT22;30214;52.246;14.408;2023-09-19T12:42:15;21.10;77.80
44509;DHT22;30214;52.246;14.408;2023-09-19T12:44:43;21.10;76.70
44509;DHT22;30214;52.246;14.408;2023-09-19T12:47:12;21.20;75.30
44509;DHT22;30214;52.246;14.408;2023-09-19T12:50:11;21.30;77.00
44509;DHT22;30214;52.246;14.408;2023-09-19T12:52:44;21.40;77.30
44509;DHT22;30214;52.246;14.408;2023-09-19T12:55:26;21.40;77.60
44509;DHT22;30214;52.246;14.408;2023-09-19T12:58:02;21.40;76.20
44509;DHT22;30214;52.246;14.408;2023-09-19T13:00:36;21.30;77.80
44509;DHT22;30214;52.246;14.408;2023-09-19T13:03:17;21.30;74.70
44509;DHT22;30214;52.246;14.408;2023-09-19T13:05:50;21.30;76.60
44509;DHT22;30214;52.246;14.408;2023-09-19T13:08:18;21.20;74.90
44509;DHT22;30214;52.246;14.408;2023-09-19T13:11:03;21.10;76.20
44509;DHT22;30214;52.246;14.408;2023-09-19T13:13:32;21.20;77.60
44509;DHT22;30214;52.246;14.408;2023-09-19T13:16:01;21.30;76.80
44509;DHT22;30214;52.246;14.408;2023-09-19T13:18:30;21.30;77.70
44509;DHT22;30214;52.246;14.408;2023-09-19T13:21:09;21.40;77.50
44509;DHT22;30214;52.246;14.408;2023-09-19T13:23:38;21.40;76.80
44509;DHT22;30214;52.246;14.408;2023-09-19T13:26:10;21.40;76.30
44509;DHT22;30214;52.246;14.408;2023-09-19T13:28:40;21.50;78.50
44509;DHT22;30214;52.246;14.408;2023-09-19T13:31:07;21.60;77.10
44509;DHT22;30214;52.246;14.408;2023-09-19T13:33:42;21.70;78.10
44509;DHT22;30214;52.246;14.408;2023-09-19T13:36:11;21.80;77.70
44509;DHT22;30214;52.246;14.408;2023-09-19T13:38:39;21.90;77.60
44509;DHT22;30214;52.246;14.408;2023-09-19T13:41:06;21.90;77.80
44509;DHT22;30214;52.246;14.408;2023-09-19T13:43:33;21.80;77.40
44509;DHT22;30214;52.246;14.408;2023-09-19T13:45:59;21.70;76.80
44509;DHT22;30214;52.246;14.408;2023-09-19T13:48:27;21.60;77.40
44509;DHT22;30214;52.246;14.408;2023-09-19T13:50:57;21.70;79.20
44509;DHT22;30214;52.246;14.408;2023-09-19T13:53:29;21.70;78.70
44509;DHT22;30214;52.246;14.408;2023-09-19T13:55:56;21.60;77.80
44509;DHT22;30214;52.246;14.408;2023-09-19T13:58:24;21.50;77.20
44509;DHT22;30214;52.246;14.408;2023-09-19T14:00:53;21.50;77.50
44509;DHT22;30214;52.246;14.408;2023-09-19T14:03:22;21.50;78.50
44509;DHT22;30214;52.246;14.408;2023-09-19T14:05:50;21.50;77.00
44509;DHT22;30214;52.246;14.408;2023-09-19T14:08:18;21.50;78.50
44509;DHT22;30214;52.246;14.408;2023-09-19T14:10:47;21.40;76.80
44509;DHT22;30214;52.246;14.408;2023-09-19T14:13:14;21.50;76.70
44509;DHT22;30214;52.246;14.408;2023-09-19T14:15:43;21.50;78.70
44509;DHT22;30214;52.246;14.408;2023-09-19T14:18:17;21.30;77.50
44509;DHT22;30214;52.246;14.408;2023-09-19T14:20:46;21.20;77.20
44509;DHT22;30214;52.246;14.408;2023-09-19T14:23:13;21.20;76.60
44509;DHT22;30214;52.246;14.408;2023-09-19T14:25:40;21.10;77.20
44509;DHT22;30214;52.246;14.408;2023-09-19T14:28:09;21.10;75.30
44509;DHT22;30214;52.246;14.408;2023-09-19T14:30:36;21.10;76.50
44509;DHT22;30214;52.246;14.408;2023-09-19T14:33:04;21.00;76.90
44509;DHT22;30214;52.246;14.408;2023-09-19T14:35:32;20.90;76.90
44509;DHT22;30214;52.246;14.408;2023-09-19T14:38:00;20.80;75.80
44509;DHT22;30214;52.246;14.408;2023-09-19T14:40:27;20.80;76.40
44509;DHT22;30214;52.246;14.408;2023-09-19T14:42:54;20.80;75.80
44509;DHT22;30214;52.246;14.408;2023-09-19T14:45:23;20.80;75.30
44509;DHT22;30214;52.246;14.408;2023-09-19T14:47:51;20.80;77.00
44509;DHT22;30214;52.246;14.408;2023-09-19T14:50:20;20.90;77.60
44509;DHT22;30214;52.246;14.408;2023-09-19T14:52:48;21.00;74.00
44509;DHT22;30214;52.246;14.408;2023-09-19T14:55:15;21.10;75.20
44509;DHT22;30214;52.246;14.408;2023-09-19T14:57:42;21.10;75.60
44509;DHT22;30214;52.246;14.408;2023-09-19T15:00:12;21.10;74.90
44509;DHT22;30214;52.246;14.408;2023-09-19T15:02:41;21.10;74.90
44509;DHT22;30214;52.246;14.408;2023-09-19T15:05:08;21.10;76.10
44509;DHT22;30214;52.246;14.408;2023-09-19T15:07:36;21.10;76.40
44509;DHT22;30214;52.246;14.408;2023-09-19T15:10:05;21.10;75.00
44509;DHT22;30214;52.246;14.408;2023-09-19T15:12:35;21.00;75.40
44509;DHT22;30214;52.246;14.408;2023-09-19T15:15:04;20.90;75.40
44509;DHT22;30214;52.246;14.408;2023-09-19T15:17:34;20.80;77.30
44509;DHT22;30214;52.246;14.408;2023-09-19T15:20:04;20.70;75.20
44509;DHT22;30214;52.246;14.408;2023-09-19T15:22:32;20.70;76.20
44509;DHT22;30214;52.246;14.408;2023-09-19T15:25:00;20.60;74.90
44509;DHT22;30214;52.246;14.408;2023-09-19T15:27:27;20.60;76.10
44509;DHT22;30214;52.246;14.408;2023-09-19T15:29:56;20.50;76.40
44509;DHT22;30214;52.246;14.408;2023-09-19T15:32:23;20.50;76.60
44509;DHT22;30214;52.246;14.408;2023-09-19T15:34:50;20.40;75.70